Time,TemperatureF,DewpointF,PressureIn,WindDirection,WindDirectionDegrees,WindSpeedMPH,WindSpeedGustMPH,Humidity,HourlyPrecipIn,Conditions,Clouds,dailyrainin,SoftwareType,DateUTC
2013-07-18 00:14:00,73.1,37.0,29.99,NNW,338,0.0,0.0,27,0.00,,,0.00,weatherlink.com 1.10,2013-07-18 07:14:00,
2013-07-18 00:30:00,72.5,38.0,29.99,NNW,340,0.0,0.0,28,0.00,,,0.00,weatherlink.com 1.10,2013-07-18 07:30:00,
2013-07-18 00:45:00,71.5,38.0,29.99,NNW,340,0.0,0.0,30,0.00,,,0.00,weatherlink.com 1.10,2013-07-18 07:45:00,
2013-07-18 01:00:00,71.1,39.0,29.99,NNW,341,0.0,0.0,31,0.00,,,0.00,weatherlink.com 1.10,2013-07-18 08:00:00,
2013-07-18 01:15:00,70.9,39.0,29.98,NNW,328,0.0,1.0,31,0.00,,,0.00,weatherlink.com 1.10,2013-07-18 08:15:00,
2013-07-18 01:30:00,69.7,39.0,29.98,NNW,328,0.0,1.0,33,0.00,,,0.00,weatherlink.com 1.10,2013-07-18 08:30:00,
2013-07-18 01:45:00,69.5,39.0,29.97,NNW,328,0.0,0.0,33,0.00,,,0.00,weatherlink.com 1.10,2013-07-18 08:45:00,
2013-07-18 02:00:00,68.5,39.0,29.97,NNW,328,0.0,0.0,34,0.00,,,0.00,weatherlink.com 1.10,2013-07-18 09:00:00,
2013-07-18 02:15:00,67.9,39.0,29.97,NNW,328,0.0,0.0,35,0.00,,,0.00,weatherlink.com 1.10,2013-07-18 09:15:00,
2013-07-18 02:30:00,68.2,39.0,29.96,ENE,68,0.0,1.0,35,0.00,,,0.00,weatherlink.com 1.10,2013-07-18 09:30:00,
2013-07-18 02:45:00,68.5,39.0,29.96,ENE,69,0.0,1.0,34,0.00,,,0.00,weatherlink.com 1.10,2013-07-18 09:45:00,
2013-07-18 03:00:00,67.8,39.0,29.95,ENE,69,0.0,0.0,35,0.00,,,0.00,weatherlink.com 1.10,2013-07-18 10:00:00,
2013-07-18 03:15:00,67.1,39.0,29.95,ENE,69,0.0,0.0,36,0.00,,,0.00,weatherlink.com 1.10,2013-07-18 10:15:00,
2013-07-18 03:30:00,66.4,39.0,29.95,ENE,69,1.0,1.0,37,0.00,,,0.00,weatherlink.com 1.10,2013-07-18 10:30:00,
2013-07-18 03:45:00,66.2,40.0,29.95,ENE,69,0.0,0.0,38,0.00,,,0.00,weatherlink.com 1.10,2013-07-18 10:45:00,
2013-07-18 04:00:00,65.4,41.0,29.95,ENE,69,0.0,0.0,41,0.00,,,0.00,weatherlink.com 1.10,2013-07-18 11:00:00,
2013-07-18 04:15:00,64.2,40.0,29.95,ENE,69,0.0,0.0,42,0.00,,,0.00,weatherlink.com 1.10,2013-07-18 11:15:00,
2013-07-18 04:30:00,64.3,40.0,29.95,ENE,69,0.0,0.0,41,0.00,,,0.00,weatherlink.com 1.10,2013-07-18 11:30:00,
2013-07-18 04:45:00,64.3,40.0,29.95,North,9,1.0,1.0,41,0.00,,,0.00,weatherlink.com 1.10,2013-07-18 11:45:00,
2013-07-18 05:00:00,64.3,40.0,29.95,North,11,0.0,0.0,41,0.00,,,0.00,weatherlink.com 1.10,2013-07-18 12:00:00,
2013-07-18 05:15:00,64.0,40.0,29.96,North,10,0.0,0.0,41,0.00,,,0.00,weatherlink.com 1.10,2013-07-18 12:15:00,
2013-07-18 05:30:00,63.9,40.0,29.96,ENE,62,0.0,1.0,42,0.00,,,0.00,weatherlink.com 1.10,2013-07-18 12:30:00,
2013-07-18 05:45:00,63.0,41.0,29.97,ENE,61,0.0,1.0,44,0.00,,,0.00,weatherlink.com 1.10,2013-07-18 12:45:00,
2013-07-18 06:00:00,62.6,41.0,29.96,ENE,61,0.0,0.0,45,0.00,,,0.00,weatherlink.com 1.10,2013-07-18 13:00:00,
2013-07-18 06:15:00,62.6,41.0,29.97,ENE,62,0.0,0.0,46,0.00,,,0.00,weatherlink.com 1.10,2013-07-18 13:15:00,
2013-07-18 06:32:00,63.4,43.0,29.97,ENE,62,0.0,1.0,47,0.00,,,0.00,weatherlink.com 1.10,2013-07-18 13:32:00,
2013-07-18 06:46:00,64.1,43.0,29.97,ENE,62,0.0,0.0,46,0.00,,,0.00,weatherlink.com 1.10,2013-07-18 13:46:00,
2013-07-18 07:01:00,65.5,43.0,29.97,ENE,61,0.0,1.0,45,0.00,,,0.00,weatherlink.com 1.10,2013-07-18 14:01:00,
2013-07-18 07:16:00,67.1,43.0,29.97,WNW,302,0.0,1.0,42,0.00,,,0.00,weatherlink.com 1.10,2013-07-18 14:16:00,
2013-07-18 07:31:00,69.0,43.0,29.98,WNW,299,0.0,1.0,39,0.00,,,0.00,weatherlink.com 1.10,2013-07-18 14:31:00,
2013-07-18 07:46:00,72.6,43.0,29.98,WNW,300,0.0,1.0,35,0.00,,,0.00,weatherlink.com 1.10,2013-07-18 14:46:00,
2013-07-18 08:01:00,73.2,43.0,29.98,WSW,240,0.0,0.0,34,0.00,,,0.00,weatherlink.com 1.10,2013-07-18 15:01:00,
2013-07-18 08:16:00,73.9,43.0,29.98,WSW,252,0.0,1.0,33,0.00,,,0.00,weatherlink.com 1.10,2013-07-18 15:16:00,
2013-07-18 08:31:00,75.6,42.0,29.98,West,264,1.0,1.0,30,0.00,,,0.00,weatherlink.com 1.10,2013-07-18 15:31:00,
2013-07-18 08:46:00,77.7,43.0,29.98,WNW,296,0.0,2.0,29,0.00,,,0.00,weatherlink.com 1.10,2013-07-18 15:46:00,
2013-07-18 09:01:00,78.7,41.0,29.98,NNW,348,0.0,2.0,26,0.00,,,0.00,weatherlink.com 1.10,2013-07-18 16:01:00,
2013-07-18 09:16:00,80.6,42.0,29.98,East,86,0.0,1.0,25,0.00,,,0.00,weatherlink.com 1.10,2013-07-18 16:16:00,
2013-07-18 09:31:00,82.9,40.0,29.97,West,261,0.0,1.0,22,0.00,,,0.00,weatherlink.com 1.10,2013-07-18 16:31:00,
2013-07-18 09:46:00,83.8,41.0,29.97,NNW,342,3.0,4.0,22,0.00,,,0.00,weatherlink.com 1.10,2013-07-18 16:46:00,
2013-07-18 10:01:00,84.1,41.0,29.96,ENE,71,1.0,3.0,22,0.00,,,0.00,weatherlink.com 1.10,2013-07-18 17:01:00,
2013-07-18 10:16:00,86.9,37.0,29.97,East,94,1.0,2.0,17,0.00,,,0.00,weatherlink.com 1.10,2013-07-18 17:16:00,
2013-07-18 10:31:00,87.5,38.0,29.96,North,355,1.0,4.0,17,0.00,,,0.00,weatherlink.com 1.10,2013-07-18 17:31:00,
2013-07-18 10:46:00,89.5,39.0,29.96,WSW,258,0.0,2.0,17,0.00,,,0.00,weatherlink.com 1.10,2013-07-18 17:46:00,
2013-07-18 11:01:00,91.1,39.0,29.95,SW,233,0.0,2.0,16,0.00,,,0.00,weatherlink.com 1.10,2013-07-18 18:01:00,
2013-07-18 11:16:00,92.0,38.0,29.95,NW,323,1.0,3.0,15,0.00,,,0.00,weatherlink.com 1.10,2013-07-18 18:16:00,
2013-07-18 11:31:00,92.1,38.0,29.95,NE,39,2.0,4.0,15,0.00,,,0.00,weatherlink.com 1.10,2013-07-18 18:31:00,
2013-07-18 11:46:00,93.4,37.0,29.94,East,79,2.0,4.0,14,0.00,,,0.00,weatherlink.com 1.10,2013-07-18 18:46:00,
2013-07-18 12:01:00,94.8,37.0,29.94,SE,134,1.0,4.0,13,0.00,,,0.00,weatherlink.com 1.10,2013-07-18 19:01:00,
2013-07-18 12:16:00,96.2,38.0,29.93,WSW,242,2.0,3.0,13,0.00,,,0.00,weatherlink.com 1.10,2013-07-18 19:16:00,
2013-07-18 12:31:00,96.5,36.0,29.92,SW,230,2.0,6.0,12,0.00,,,0.00,weatherlink.com 1.10,2013-07-18 19:31:00,
2013-07-18 12:47:00,97.8,35.0,29.92,East,88,1.0,7.0,11,0.00,,,0.00,weatherlink.com 1.10,2013-07-18 19:47:00,
2013-07-18 13:02:00,98.2,35.0,29.91,SE,131,3.0,5.0,11,0.00,,,0.00,weatherlink.com 1.10,2013-07-18 20:02:00,
2013-07-18 13:17:00,99.8,34.0,29.91,ENE,76,3.0,4.0,10,0.00,,,0.00,weatherlink.com 1.10,2013-07-18 20:17:00,
2013-07-18 13:32:00,98.5,35.0,29.90,WNW,298,0.0,4.0,11,0.00,,,0.00,weatherlink.com 1.10,2013-07-18 20:32:00,
2013-07-18 13:47:00,99.8,34.0,29.90,East,92,1.0,5.0,10,0.00,,,0.00,weatherlink.com 1.10,2013-07-18 20:47:00,
2013-07-18 14:02:00,100.5,35.0,29.89,ESE,103,2.0,4.0,10,0.00,,,0.00,weatherlink.com 1.10,2013-07-18 21:02:00,
2013-07-18 14:17:00,99.6,34.0,29.88,ENE,74,2.0,4.0,10,0.00,,,0.00,weatherlink.com 1.10,2013-07-18 21:17:00,
2013-07-18 14:32:00,100.3,32.0,29.88,ESE,113,1.0,6.0,9,0.00,,,0.00,weatherlink.com 1.10,2013-07-18 21:32:00,
2013-07-18 14:47:00,100.1,32.0,29.87,ESE,108,1.0,7.0,9,0.00,,,0.00,weatherlink.com 1.10,2013-07-18 21:47:00,
2013-07-18 15:02:00,100.9,32.0,29.87,NNW,342,0.0,6.0,9,0.00,,,0.00,weatherlink.com 1.10,2013-07-18 22:02:00,
2013-07-18 15:17:00,99.7,31.0,29.86,North,10,1.0,8.0,9,0.00,,,0.00,weatherlink.com 1.10,2013-07-18 22:17:00,
2013-07-18 15:32:00,99.7,34.0,29.85,North,354,2.0,9.0,10,0.00,,,0.00,weatherlink.com 1.10,2013-07-18 22:32:00,
2013-07-18 15:47:00,99.6,34.0,29.85,North,1,3.0,9.0,10,0.00,,,0.00,weatherlink.com 1.10,2013-07-18 22:47:00,
2013-07-18 16:02:00,99.4,34.0,29.85,NE,43,2.0,9.0,10,0.00,,,0.00,weatherlink.com 1.10,2013-07-18 23:02:00,
2013-07-18 16:17:00,99.7,36.0,29.85,NNW,334,3.0,4.0,11,0.00,,,0.00,weatherlink.com 1.10,2013-07-18 23:17:00,
2013-07-18 16:32:00,98.6,38.0,29.84,SW,224,1.0,8.0,12,0.00,,,0.00,weatherlink.com 1.10,2013-07-18 23:32:00,
2013-07-18 16:47:00,97.8,44.0,29.84,WNW,292,3.0,8.0,16,0.00,,,0.00,weatherlink.com 1.10,2013-07-18 23:47:00,
2013-07-18 17:02:00,96.6,45.0,29.84,NNW,330,5.0,8.0,17,0.00,,,0.00,weatherlink.com 1.10,2013-07-19 00:02:00,
2013-07-18 17:17:00,95.8,43.0,29.84,NNW,333,5.0,8.0,16,0.00,,,0.00,weatherlink.com 1.10,2013-07-19 00:17:00,
2013-07-18 17:32:00,95.7,43.0,29.84,NW,319,3.0,8.0,16,0.00,,,0.00,weatherlink.com 1.10,2013-07-19 00:32:00,
2013-07-18 17:47:00,94.9,45.0,29.84,NW,306,0.0,10.0,18,0.00,,,0.00,weatherlink.com 1.10,2013-07-19 00:47:00,
2013-07-18 18:02:00,94.2,46.0,29.84,NW,326,3.0,6.0,19,0.00,,,0.00,weatherlink.com 1.10,2013-07-19 01:02:00,
2013-07-18 18:17:00,93.8,46.0,29.84,NW,314,2.0,7.0,19,0.00,,,0.00,weatherlink.com 1.10,2013-07-19 01:17:00,
2013-07-18 18:32:00,93.0,45.0,29.84,WNW,287,1.0,7.0,19,0.00,,,0.00,weatherlink.com 1.10,2013-07-19 01:32:00,
2013-07-18 18:47:00,92.5,43.0,29.85,WNW,302,1.0,5.0,18,0.00,,,0.00,weatherlink.com 1.10,2013-07-19 01:47:00,
2013-07-18 19:02:00,91.5,41.0,29.86,West,278,1.0,5.0,17,0.00,,,0.00,weatherlink.com 1.10,2013-07-19 02:02:00,
2013-07-18 19:17:00,90.0,40.0,29.86,SW,229,3.0,3.0,17,0.00,,,0.00,weatherlink.com 1.10,2013-07-19 02:17:00,
2013-07-18 19:32:00,88.7,39.0,29.87,West,275,3.0,5.0,17,0.00,,,0.00,weatherlink.com 1.10,2013-07-19 02:32:00,
2013-07-18 19:47:00,87.7,48.0,29.87,WNW,285,2.0,5.0,25,0.00,,,0.00,weatherlink.com 1.10,2013-07-19 02:47:00,
2013-07-18 20:02:00,84.9,54.0,29.88,SW,215,2.0,5.0,34,0.00,,,0.00,weatherlink.com 1.10,2013-07-19 03:02:00,
2013-07-18 20:17:00,82.7,56.0,29.88,SSW,212,0.0,5.0,40,0.00,,,0.00,weatherlink.com 1.10,2013-07-19 03:17:00,
2013-07-18 20:32:00,81.5,56.0,29.88,SW,220,1.0,4.0,41,0.00,,,0.00,weatherlink.com 1.10,2013-07-19 03:32:00,
2013-07-18 20:47:00,80.3,55.0,29.89,SW,229,1.0,3.0,42,0.00,,,0.00,weatherlink.com 1.10,2013-07-19 03:47:00,
2013-07-18 21:17:00,79.7,55.0,29.90,SW,235,1.0,2.0,42,0.00,,,0.00,weatherlink.com 1.10,2013-07-19 04:17:00,
2013-07-18 21:32:00,79.0,55.0,29.90,SW,218,0.0,1.0,43,0.00,,,0.00,weatherlink.com 1.10,2013-07-19 04:32:00,
2013-07-18 21:47:00,77.7,56.0,29.91,SW,215,2.0,3.0,48,0.00,,,0.00,weatherlink.com 1.10,2013-07-19 04:47:00,
2013-07-18 22:02:00,76.6,57.0,29.91,SE,146,0.0,2.0,51,0.00,,,0.00,weatherlink.com 1.10,2013-07-19 05:02:00,
2013-07-18 22:17:00,76.5,56.0,29.91,SSE,168,0.0,1.0,50,0.00,,,0.00,weatherlink.com 1.10,2013-07-19 05:17:00,
2013-07-18 22:32:00,76.9,56.0,29.91,ESE,115,1.0,2.0,49,0.00,,,0.00,weatherlink.com 1.10,2013-07-19 05:32:00,
2013-07-18 22:47:00,77.1,56.0,29.91,WSW,248,0.0,2.0,49,0.00,,,0.00,weatherlink.com 1.10,2013-07-19 05:47:00,
2013-07-18 23:02:00,76.6,57.0,29.90,WSW,257,0.0,2.0,50,0.00,,,0.00,weatherlink.com 1.10,2013-07-19 06:02:00,
2013-07-18 23:18:00,75.5,57.0,29.90,WSW,244,0.0,2.0,53,0.00,,,0.00,weatherlink.com 1.10,2013-07-19 06:18:00,
2013-07-18 23:33:00,74.7,57.0,29.90,SSE,165,1.0,2.0,55,0.00,,,0.00,weatherlink.com 1.10,2013-07-19 06:33:00,
2013-07-18 23:48:00,73.7,57.0,29.90,West,263,1.0,1.0,57,0.00,,,0.00,weatherlink.com 1.10,2013-07-19 06:48:00,